sensor_id;sensor_type;location;lat;lon;timestamp;pressure;altitude;pressure_sealevel;temperature;humidity
55044;BME280;54902;50.420;18.854;2022-10-16T00:00:27;101521.57;;;14.51;72.17
55044;BME280;54902;50.420;18.854;2022-10-16T00:00:58;101528.82;;;14.52;72.17
55044;BME280;54902;50.420;18.854;2022-10-16T00:01:30;101517.96;;;14.51;72.16
55044;BME280;54902;50.420;18.854;2022-10-16T00:02:01;101527.97;;;14.52;72.17
55044;BME280;54902;50.420;18.854;2022-10-16T00:02:32;101524.21;;;14.53;72.19
55044;BME280;54902;50.420;18.854;2022-10-16T00:03:04;101524.31;;;14.51;72.17
55044;BME280;54902;50.420;18.854;2022-10-16T00:03:36;101518.82;;;14.51;72.17
55044;BME280;54902;50.420;18.854;2022-10-16T00:04:07;101528.10;;;14.50;72.15
55044;BME280;54902;50.420;18.854;2022-10-16T00:04:39;101521.57;;;14.51;72.15
55044;BME280;54902;50.420;18.854;2022-10-16T00:05:10;101520.72;;;14.51;72.11
55044;BME280;54902;50.420;18.854;2022-10-16T00:05:42;101520.72;;;14.51;72.11
55044;BME280;54902;50.420;18.854;2022-10-16T00:06:15;101525.35;;;14.50;72.13
55044;BME280;54902;50.420;18.854;2022-10-16T00:06:47;101527.07;;;14.51;72.13
55044;BME280;54902;50.420;18.854;2022-10-16T00:07:18;101526.21;;;14.51;72.13
55044;BME280;54902;50.420;18.854;2022-10-16T00:07:49;101524.31;;;14.51;72.13
55044;BME280;54902;50.420;18.854;2022-10-16T00:08:20;101527.97;;;14.52;72.12
55044;BME280;54902;50.420;18.854;2022-10-16T00:08:51;101523.45;;;14.51;72.13
55044;BME280;54902;50.420;18.854;2022-10-16T00:09:22;101532.58;;;14.51;72.15
55044;BME280;54902;50.420;18.854;2022-10-16T00:09:53;101524.31;;;14.51;72.15
55044;BME280;54902;50.420;18.854;2022-10-16T00:10:24;101529.82;;;14.51;72.16
55044;BME280;54902;50.420;18.854;2022-10-16T00:11:09;101519.71;;;14.52;72.17
55044;BME280;54902;50.420;18.854;2022-10-16T00:11:37;101523.33;;;14.52;72.19
55044;BME280;54902;50.420;18.854;2022-10-16T00:12:09;101521.57;;;14.51;72.17
55044;BME280;54902;50.420;18.854;2022-10-16T00:12:40;101525.21;;;14.52;72.19
55044;BME280;54902;50.420;18.854;2022-10-16T00:13:11;101510.56;;;14.51;72.15
55044;BME280;54902;50.420;18.854;2022-10-16T00:13:43;101522.45;;;14.52;72.17
55044;BME280;54902;50.420;18.854;2022-10-16T00:14:15;101527.07;;;14.51;72.20
55044;BME280;54902;50.420;18.854;2022-10-16T00:14:46;101522.45;;;14.52;72.19
55044;BME280;54902;50.420;18.854;2022-10-16T00:15:17;101522.45;;;14.52;72.19
55044;BME280;54902;50.420;18.854;2022-10-16T00:15:48;101514.22;;;14.52;72.19
55044;BME280;54902;50.420;18.854;2022-10-16T00:16:19;101521.57;;;14.51;72.19
55044;BME280;54902;50.420;18.854;2022-10-16T00:16:50;101521.57;;;14.51;72.18
55044;BME280;54902;50.420;18.854;2022-10-16T00:17:21;101524.31;;;14.51;72.19
55044;BME280;54902;50.420;18.854;2022-10-16T00:17:52;101527.97;;;14.52;72.23
55044;BME280;54902;50.420;18.854;2022-10-16T00:18:24;101517.96;;;14.51;72.27
55044;BME280;54902;50.420;18.854;2022-10-16T00:18:55;101520.72;;;14.51;72.25
55044;BME280;54902;50.420;18.854;2022-10-16T00:19:27;101521.57;;;14.51;72.24
55044;BME280;54902;50.420;18.854;2022-10-16T00:19:58;101507.83;;;14.51;72.23
55044;BME280;54902;50.420;18.854;2022-10-16T00:20:29;101518.96;;;14.50;72.21
55044;BME280;54902;50.420;18.854;2022-10-16T00:21:08;101519.71;;;14.52;72.22
55044;BME280;54902;50.420;18.854;2022-10-16T00:21:40;101512.46;;;14.51;72.26
55044;BME280;54902;50.420;18.854;2022-10-16T00:22:11;101516.07;;;14.51;72.25
55044;BME280;54902;50.420;18.854;2022-10-16T00:22:42;101521.57;;;14.51;72.21
55044;BME280;54902;50.420;18.854;2022-10-16T00:23:13;101517.10;;;14.50;72.23
55044;BME280;54902;50.420;18.854;2022-10-16T00:23:44;101523.45;;;14.51;72.24
55044;BME280;54902;50.420;18.854;2022-10-16T00:24:15;101518.96;;;14.50;72.23
55044;BME280;54902;50.420;18.854;2022-10-16T00:24:46;101518.96;;;14.50;72.21
55044;BME280;54902;50.420;18.854;2022-10-16T00:25:17;101525.35;;;14.50;72.23
55044;BME280;54902;50.420;18.854;2022-10-16T00:25:57;101505.91;;;14.42;72.26
55044;BME280;54902;50.420;18.854;2022-10-16T00:26:31;101519.85;;;14.50;72.25
55044;BME280;54902;50.420;18.854;2022-10-16T00:27:02;101518.96;;;14.50;72.27
55044;BME280;54902;50.420;18.854;2022-10-16T00:27:33;101523.60;;;14.49;72.27
55044;BME280;54902;50.420;18.854;2022-10-16T00:28:04;101525.35;;;14.50;72.27
55044;BME280;54902;50.420;18.854;2022-10-16T00:28:35;101518.10;;;14.49;72.31
55044;BME280;54902;50.420;18.854;2022-10-16T00:29:07;101517.25;;;14.49;72.29
55044;BME280;54902;50.420;18.854;2022-10-16T00:29:38;101518.96;;;14.50;72.28
55044;BME280;54902;50.420;18.854;2022-10-16T00:30:09;101519.99;;;14.49;72.33
55044;BME280;54902;50.420;18.854;2022-10-16T00:30:40;101512.59;;;14.49;72.29
55044;BME280;54902;50.420;18.854;2022-10-16T00:31:11;101518.96;;;14.50;72.31
55044;BME280;54902;50.420;18.854;2022-10-16T00:31:42;101513.46;;;14.50;72.30
55044;BME280;54902;50.420;18.854;2022-10-16T00:32:14;101512.59;;;14.49;72.30
55044;BME280;54902;50.420;18.854;2022-10-16T00:32:44;101507.10;;;14.49;72.33
55044;BME280;54902;50.420;18.854;2022-10-16T00:33:15;101514.49;;;14.49;72.32
55044;BME280;54902;50.420;18.854;2022-10-16T00:33:47;101514.49;;;14.49;72.30
55044;BME280;54902;50.420;18.854;2022-10-16T00:34:18;101515.35;;;14.49;72.28
55044;BME280;54902;50.420;18.854;2022-10-16T00:34:49;101517.25;;;14.49;72.28
55044;BME280;54902;50.420;18.854;2022-10-16T00:35:20;101522.75;;;14.49;72.31
55044;BME280;54902;50.420;18.854;2022-10-16T00:35:50;101517.25;;;14.49;72.32
55044;BME280;54902;50.420;18.854;2022-10-16T00:36:23;101501.55;;;14.40;72.34
55044;BME280;54902;50.420;18.854;2022-10-16T00:36:54;101514.49;;;14.49;72.33
55044;BME280;54902;50.420;18.854;2022-10-16T00:37:25;101521.84;;;14.48;72.34
55044;BME280;54902;50.420;18.854;2022-10-16T00:37:56;101517.25;;;14.49;72.36
55044;BME280;54902;50.420;18.854;2022-10-16T00:38:27;101518.10;;;14.49;72.36
55044;BME280;54902;50.420;18.854;2022-10-16T00:38:58;101525.48;;;14.49;72.36
55044;BME280;54902;50.420;18.854;2022-10-16T00:39:31;101528.25;;;14.49;72.39
55044;BME280;54902;50.420;18.854;2022-10-16T00:40:02;101526.49;;;14.48;72.38
55044;BME280;54902;50.420;18.854;2022-10-16T00:40:33;101527.34;;;14.48;72.37
55044;BME280;54902;50.420;18.854;2022-10-16T00:41:06;101523.73;;;14.48;72.38
55044;BME280;54902;50.420;18.854;2022-10-16T00:41:37;101519.99;;;14.49;72.37
55044;BME280;54902;50.420;18.854;2022-10-16T00:42:16;101528.25;;;14.49;72.40
55044;BME280;54902;50.420;18.854;2022-10-16T00:42:48;101526.49;;;14.48;72.37
55044;BME280;54902;50.420;18.854;2022-10-16T00:44:55;101531.99;;;14.48;72.38
55044;BME280;54902;50.420;18.854;2022-10-16T00:45:27;101531.99;;;14.48;72.38
55044;BME280;54902;50.420;18.854;2022-10-16T00:45:59;101524.73;;;14.47;72.40
55044;BME280;54902;50.420;18.854;2022-10-16T00:46:37;101523.88;;;14.46;72.42
55044;BME280;54902;50.420;18.854;2022-10-16T00:47:18;101524.73;;;14.47;72.40
55044;BME280;54902;50.420;18.854;2022-10-16T00:47:53;101527.49;;;14.47;72.45
55044;BME280;54902;50.420;18.854;2022-10-16T00:48:26;101528.49;;;14.46;72.44
55044;BME280;54902;50.420;18.854;2022-10-16T00:49:04;101528.49;;;14.46;72.39
55044;BME280;54902;50.420;18.854;2022-10-16T00:49:36;101522.99;;;14.46;72.43
55044;BME280;54902;50.420;18.854;2022-10-16T00:50:13;101528.63;;;14.44;72.41
55044;BME280;54902;50.420;18.854;2022-10-16T00:50:46;101520.38;;;14.44;72.41
55044;BME280;54902;50.420;18.854;2022-10-16T00:51:25;101522.27;;;14.44;72.42
55044;BME280;54902;50.420;18.854;2022-10-16T00:51:58;101525.88;;;14.44;72.46
55044;BME280;54902;50.420;18.854;2022-10-16T00:52:29;101521.38;;;14.43;72.46
55044;BME280;54902;50.420;18.854;2022-10-16T00:53:01;101525.02;;;14.44;72.45
55044;BME280;54902;50.420;18.854;2022-10-16T00:53:33;101520.52;;;14.43;72.35
55044;BME280;54902;50.420;18.854;2022-10-16T00:54:10;101525.02;;;14.44;72.34
55044;BME280;54902;50.420;18.854;2022-10-16T00:54:42;101520.52;;;14.43;72.36
55044;BME280;54902;50.420;18.854;2022-10-16T00:55:13;101524.13;;;14.43;72.37
55044;BME280;54902;50.420;18.854;2022-10-16T00:55:44;101522.41;;;14.42;72.39
55044;BME280;54902;50.420;18.854;2022-10-16T00:56:17;101526.88;;;14.43;72.37
55044;BME280;54902;50.420;18.854;2022-10-16T00:56:49;101527.02;;;14.42;72.39
55044;BME280;54902;50.420;18.854;2022-10-16T00:57:21;101524.26;;;14.42;72.42
55044;BME280;54902;50.420;18.854;2022-10-16T00:57:52;101529.77;;;14.42;72.41
55044;BME280;54902;50.420;18.854;2022-10-16T00:58:23;101529.77;;;14.42;72.44
55044;BME280;54902;50.420;18.854;2022-10-16T00:58:55;101525.27;;;14.41;72.47
55044;BME280;54902;50.420;18.854;2022-10-16T00:59:32;101537.15;;;14.41;72.44
55044;BME280;54902;50.420;18.854;2022-10-16T01:00:06;101533.51;;;14.41;72.43
55044;BME280;54902;50.420;18.854;2022-10-16T01:00:37;101525.27;;;14.41;72.43
55044;BME280;54902;50.420;18.854;2022-10-16T01:01:08;101525.27;;;14.41;72.42
55044;BME280;54902;50.420;18.854;2022-10-16T01:01:39;101535.41;;;14.40;72.43
55044;BME280;54902;50.420;18.854;2022-10-16T01:02:13;101528.02;;;14.41;72.48
55044;BME280;54902;50.420;18.854;2022-10-16T01:02:44;101531.80;;;14.40;72.46
55044;BME280;54902;50.420;18.854;2022-10-16T01:03:26;101528.15;;;14.39;72.43
55044;BME280;54902;50.420;18.854;2022-10-16T01:03:57;101528.15;;;14.39;72.42
55044;BME280;54902;50.420;18.854;2022-10-16T01:04:37;101532.80;;;14.39;72.44
55044;BME280;54902;50.420;18.854;2022-10-16T01:05:09;101528.30;;;14.38;72.45
55044;BME280;54902;50.420;18.854;2022-10-16T01:05:46;101531.04;;;14.38;72.45
55044;BME280;54902;50.420;18.854;2022-10-16T01:06:31;101528.30;;;14.38;72.46
55044;BME280;54902;50.420;18.854;2022-10-16T01:08:06;101530.18;;;14.37;72.40
55044;BME280;54902;50.420;18.854;2022-10-16T01:09:27;101522.07;;;14.36;72.46
55044;BME280;54902;50.420;18.854;2022-10-16T01:12:16;101525.82;;;14.35;72.49
55044;BME280;54902;50.420;18.854;2022-10-16T01:13:41;101524.07;;;14.34;72.53
55044;BME280;54902;50.420;18.854;2022-10-16T01:14:31;101522.31;;;14.33;72.53
55044;BME280;54902;50.420;18.854;2022-10-16T01:15:08;101517.85;;;14.32;72.52
55044;BME280;54902;50.420;18.854;2022-10-16T01:15:51;101514.07;;;14.33;72.49
55044;BME280;54902;50.420;18.854;2022-10-16T01:16:34;101520.60;;;14.32;72.49
55044;BME280;54902;50.420;18.854;2022-10-16T01:17:11;101518.84;;;14.31;72.51
55044;BME280;54902;50.420;18.854;2022-10-16T01:17:51;101517.95;;;14.30;72.52
55044;BME280;54902;50.420;18.854;2022-10-16T01:19:13;101527.09;;;14.31;72.54
55044;BME280;54902;50.420;18.854;2022-10-16T01:20:35;101525.48;;;14.28;72.51
55044;BME280;54902;50.420;18.854;2022-10-16T01:21:17;101517.38;;;14.27;72.50
55044;BME280;54902;50.420;18.854;2022-10-16T01:21:53;101519.13;;;14.28;72.53
55044;BME280;54902;50.420;18.854;2022-10-16T01:22:36;101532.98;;;14.26;72.56
55044;BME280;54902;50.420;18.854;2022-10-16T01:23:21;101528.37;;;14.27;72.60
55044;BME280;54902;50.420;18.854;2022-10-16T01:24:45;101523.87;;;14.26;72.59
55044;BME280;54902;50.420;18.854;2022-10-16T01:27:27;101524.01;;;14.24;72.61
55044;BME280;54902;50.420;18.854;2022-10-16T01:28:00;101526.89;;;14.23;72.61
55044;BME280;54902;50.420;18.854;2022-10-16T01:29:39;101521.39;;;14.23;72.60
55044;BME280;54902;50.420;18.854;2022-10-16T01:30:45;101525.14;;;14.22;72.65
55044;BME280;54902;50.420;18.854;2022-10-16T01:31:23;101524.28;;;14.21;72.64
55044;BME280;54902;50.420;18.854;2022-10-16T01:32:02;101525.28;;;14.20;72.61
55044;BME280;54902;50.420;18.854;2022-10-16T01:32:49;101523.40;;;14.21;72.66
55044;BME280;54902;50.420;18.854;2022-10-16T01:33:30;101517.89;;;14.21;72.65
55044;BME280;54902;50.420;18.854;2022-10-16T01:34:09;101517.03;;;14.20;72.66
55044;BME280;54902;50.420;18.854;2022-10-16T01:34:52;101509.45;;;14.13;72.67
55044;BME280;54902;50.420;18.854;2022-10-16T01:35:34;101525.28;;;14.20;72.68
55044;BME280;54902;50.420;18.854;2022-10-16T01:36:34;101525.43;;;14.19;72.66
55044;BME280;54902;50.420;18.854;2022-10-16T01:36:57;101519.92;;;14.19;72.67
55044;BME280;54902;50.420;18.854;2022-10-16T01:37:37;101526.41;;;14.18;72.69
55044;BME280;54902;50.420;18.854;2022-10-16T01:38:16;101520.91;;;14.18;72.67
55044;BME280;54902;50.420;18.854;2022-10-16T01:38:51;101524.52;;;14.18;72.66
55044;BME280;54902;50.420;18.854;2022-10-16T01:39:29;101519.16;;;14.17;72.68
55044;BME280;54902;50.420;18.854;2022-10-16T01:40:05;101521.91;;;14.17;72.71
55044;BME280;54902;50.420;18.854;2022-10-16T01:40:39;101522.91;;;14.16;72.73
55044;BME280;54902;50.420;18.854;2022-10-16T01:41:18;101530.16;;;14.17;72.70
55044;BME280;54902;50.420;18.854;2022-10-16T01:41:58;101517.41;;;14.16;72.69
55044;BME280;54902;50.420;18.854;2022-10-16T01:42:35;101532.05;;;14.16;72.69
55044;BME280;54902;50.420;18.854;2022-10-16T01:43:12;101518.68;;;14.12;72.74
55044;BME280;54902;50.420;18.854;2022-10-16T01:43:49;101523.94;;;14.15;72.70
55044;BME280;54902;50.420;18.854;2022-10-16T01:44:26;101523.94;;;14.15;72.69
55044;BME280;54902;50.420;18.854;2022-10-16T01:45:01;101522.91;;;14.16;72.72
55044;BME280;54902;50.420;18.854;2022-10-16T01:45:34;101523.94;;;14.15;72.73
55044;BME280;54902;50.420;18.854;2022-10-16T01:46:06;101523.94;;;14.15;72.74
55044;BME280;54902;50.420;18.854;2022-10-16T01:46:41;101523.94;;;14.15;72.74
55044;BME280;54902;50.420;18.854;2022-10-16T01:47:14;101526.83;;;14.13;72.74
55044;BME280;54902;50.420;18.854;2022-10-16T01:47:48;101526.83;;;14.13;72.77
55044;BME280;54902;50.420;18.854;2022-10-16T01:48:21;101518.59;;;14.13;72.75
55044;BME280;54902;50.420;18.854;2022-10-16T01:48:55;101522.20;;;14.14;72.78
55044;BME280;54902;50.420;18.854;2022-10-16T01:49:29;101520.44;;;14.13;72.79
55044;BME280;54902;50.420;18.854;2022-10-16T01:50:04;101526.83;;;14.13;72.74
55044;BME280;54902;50.420;18.854;2022-10-16T01:50:38;101521.45;;;14.12;72.76
55044;BME280;54902;50.420;18.854;2022-10-16T01:51:13;101525.07;;;14.12;72.75
55044;BME280;54902;50.420;18.854;2022-10-16T01:51:50;101528.69;;;14.13;72.72
55044;BME280;54902;50.420;18.854;2022-10-16T01:52:25;101525.94;;;14.13;72.75
55044;BME280;54902;50.420;18.854;2022-10-16T01:52:58;101524.18;;;14.12;72.78
55044;BME280;54902;50.420;18.854;2022-10-16T01:53:29;101525.21;;;14.11;72.72
55044;BME280;54902;50.420;18.854;2022-10-16T01:54:02;101525.94;;;14.13;72.75
55044;BME280;54902;50.420;18.854;2022-10-16T01:54:42;101525.21;;;14.11;72.77
55044;BME280;54902;50.420;18.854;2022-10-16T01:55:21;101527.97;;;14.11;72.79
55044;BME280;54902;50.420;18.854;2022-10-16T01:55:55;101535.18;;;14.12;72.78
55044;BME280;54902;50.420;18.854;2022-10-16T01:56:29;101524.33;;;14.10;72.78
55044;BME280;54902;50.420;18.854;2022-10-16T01:57:01;101524.18;;;14.12;72.80
55044;BME280;54902;50.420;18.854;2022-10-16T01:57:37;101531.70;;;14.10;72.81
55044;BME280;54902;50.420;18.854;2022-10-16T01:58:12;101524.33;;;14.10;72.80
55044;BME280;54902;50.420;18.854;2022-10-16T01:58:51;101538.05;;;14.10;72.81
55044;BME280;54902;50.420;18.854;2022-10-16T01:59:25;101530.84;;;14.09;72.79
55044;BME280;54902;50.420;18.854;2022-10-16T02:00:02;101531.70;;;14.10;72.80
55044;BME280;54902;50.420;18.854;2022-10-16T02:00:37;101542.70;;;14.10;72.81
55044;BME280;54902;50.420;18.854;2022-10-16T02:01:11;101542.70;;;14.10;72.80
55044;BME280;54902;50.420;18.854;2022-10-16T02:01:48;101549.19;;;14.09;72.84
55044;BME280;54902;50.420;18.854;2022-10-16T02:02:22;101546.45;;;14.09;72.88
55044;BME280;54902;50.420;18.854;2022-10-16T02:02:54;101535.45;;;14.09;72.89
55044;BME280;54902;50.420;18.854;2022-10-16T02:03:26;101538.20;;;14.09;72.87
55044;BME280;54902;50.420;18.854;2022-10-16T02:04:01;101541.84;;;14.09;72.87
55044;BME280;54902;50.420;18.854;2022-10-16T02:05:22;101547.45;;;14.08;72.89
55044;BME280;54902;50.420;18.854;2022-10-16T02:05:56;101550.19;;;14.08;72.89
55044;BME280;54902;50.420;18.854;2022-10-16T02:06:28;101552.94;;;14.08;72.91
55044;BME280;54902;50.420;18.854;2022-10-16T02:07:00;101551.19;;;14.07;72.91
55044;BME280;54902;50.420;18.854;2022-10-16T02:07:31;101544.69;;;14.08;72.89
55044;BME280;54902;50.420;18.854;2022-10-16T02:08:02;101548.43;;;14.07;72.87
55044;BME280;54902;50.420;18.854;2022-10-16T02:08:34;101542.04;;;14.06;72.90
55044;BME280;54902;50.420;18.854;2022-10-16T02:09:06;101548.43;;;14.07;72.88
55044;BME280;54902;50.420;18.854;2022-10-16T02:09:37;101552.17;;;14.06;72.89
55044;BME280;54902;50.420;18.854;2022-10-16T02:10:09;101553.04;;;14.06;72.90
55044;BME280;54902;50.420;18.854;2022-10-16T02:10:41;101550.29;;;14.06;72.89
55044;BME280;54902;50.420;18.854;2022-10-16T02:11:12;101553.04;;;14.06;72.90
55044;BME280;54902;50.420;18.854;2022-10-16T02:11:43;101549.43;;;14.06;72.86
55044;BME280;54902;50.420;18.854;2022-10-16T02:13:02;101553.17;;;14.05;72.90
55044;BME280;54902;50.420;18.854;2022-10-16T02:13:38;101545.79;;;14.05;72.89
55044;BME280;54902;50.420;18.854;2022-10-16T02:14:09;101546.82;;;14.04;72.89
55044;BME280;54902;50.420;18.854;2022-10-16T02:14:41;101551.29;;;14.05;72.89
55044;BME280;54902;50.420;18.854;2022-10-16T02:15:12;101555.92;;;14.05;72.92
55044;BME280;54902;50.420;18.854;2022-10-16T02:15:43;101556.79;;;14.05;72.95
55044;BME280;54902;50.420;18.854;2022-10-16T02:16:14;101557.68;;;14.06;72.96
55044;BME280;54902;50.420;18.854;2022-10-16T02:16:46;101557.68;;;14.06;72.96
55044;BME280;54902;50.420;18.854;2022-10-16T02:17:18;101554.92;;;14.06;72.97
55044;BME280;54902;50.420;18.854;2022-10-16T02:17:49;101555.92;;;14.05;72.95
55044;BME280;54902;50.420;18.854;2022-10-16T02:18:20;101557.81;;;14.04;72.95
55044;BME280;54902;50.420;18.854;2022-10-16T02:18:51;101551.41;;;14.04;72.99
55044;BME280;54902;50.420;18.854;2022-10-16T02:19:22;101554.17;;;14.04;72.91
55044;BME280;54902;50.420;18.854;2022-10-16T02:19:54;101556.91;;;14.04;72.91
55044;BME280;54902;50.420;18.854;2022-10-16T02:20:29;101555.92;;;14.05;72.98
55044;BME280;54902;50.420;18.854;2022-10-16T02:21:56;101556.91;;;14.04;72.92
55044;BME280;54902;50.420;18.854;2022-10-16T02:22:36;101556.06;;;14.03;72.88
55044;BME280;54902;50.420;18.854;2022-10-16T02:23:12;101554.17;;;14.04;72.92
55044;BME280;54902;50.420;18.854;2022-10-16T02:24:43;101556.91;;;14.04;73.00
55044;BME280;54902;50.420;18.854;2022-10-16T02:25:41;101557.95;;;14.03;73.00
55044;BME280;54902;50.420;18.854;2022-10-16T02:25:58;101555.20;;;14.03;72.99
55044;BME280;54902;50.420;18.854;2022-10-16T02:27:30;101544.21;;;14.03;73.08
55044;BME280;54902;50.420;18.854;2022-10-16T02:28:03;101556.91;;;14.04;73.02
55044;BME280;54902;50.420;18.854;2022-10-16T02:28:46;101554.17;;;14.04;73.00
55044;BME280;54902;50.420;18.854;2022-10-16T02:29:24;101556.91;;;14.04;73.03
55044;BME280;54902;50.420;18.854;2022-10-16T02:30:11;101553.31;;;14.03;73.05
55044;BME280;54902;50.420;18.854;2022-10-16T02:30:45;101554.17;;;14.04;73.03
55044;BME280;54902;50.420;18.854;2022-10-16T02:31:25;101547.82;;;14.03;73.05
55044;BME280;54902;50.420;18.854;2022-10-16T02:32:01;101547.82;;;14.03;73.06
55044;BME280;54902;50.420;18.854;2022-10-16T02:32:37;101546.05;;;14.02;73.03
55044;BME280;54902;50.420;18.854;2022-10-16T02:33:11;101552.45;;;14.03;73.05
55044;BME280;54902;50.420;18.854;2022-10-16T02:33:45;101541.46;;;14.03;73.01
55044;BME280;54902;50.420;18.854;2022-10-16T02:34:18;101545.20;;;14.02;73.09
55044;BME280;54902;50.420;18.854;2022-10-16T02:34:52;101547.82;;;14.03;73.08
55044;BME280;54902;50.420;18.854;2022-10-16T02:35:24;101550.56;;;14.03;73.11
55044;BME280;54902;50.420;18.854;2022-10-16T02:35:56;101554.17;;;14.04;73.11
55044;BME280;54902;50.420;18.854;2022-10-16T02:36:28;101549.70;;;14.03;73.11
55044;BME280;54902;50.420;18.854;2022-10-16T02:37:01;101547.95;;;14.02;73.12
55044;BME280;54902;50.420;18.854;2022-10-16T02:37:34;101550.56;;;14.03;73.14
55044;BME280;54902;50.420;18.854;2022-10-16T02:38:08;101546.95;;;14.03;73.16
55044;BME280;54902;50.420;18.854;2022-10-16T02:38:40;101544.31;;;14.01;73.11
55044;BME280;54902;50.420;18.854;2022-10-16T02:39:12;101557.05;;;14.02;73.10
55044;BME280;54902;50.420;18.854;2022-10-16T02:39:44;101551.56;;;14.02;73.08
55044;BME280;54902;50.420;18.854;2022-10-16T02:40:15;101557.05;;;14.02;73.09
55044;BME280;54902;50.420;18.854;2022-10-16T02:40:47;101548.95;;;14.01;73.08
55044;BME280;54902;50.420;18.854;2022-10-16T02:41:21;101550.71;;;14.02;73.09
55044;BME280;54902;50.420;18.854;2022-10-16T02:41:52;101550.71;;;14.02;73.10
55044;BME280;54902;50.420;18.854;2022-10-16T02:42:28;101554.45;;;14.01;73.07
55044;BME280;54902;50.420;18.854;2022-10-16T02:43:00;101549.80;;;14.01;73.06
55044;BME280;54902;50.420;18.854;2022-10-16T02:43:33;101549.80;;;14.01;73.05
55044;BME280;54902;50.420;18.854;2022-10-16T02:44:05;101548.95;;;14.01;73.07
55044;BME280;54902;50.420;18.854;2022-10-16T02:44:35;101543.45;;;14.01;73.10
55044;BME280;54902;50.420;18.854;2022-10-16T02:45:09;101550.71;;;14.02;73.11
55044;BME280;54902;50.420;18.854;2022-10-16T02:45:40;101552.70;;;14.00;73.12
55044;BME280;54902;50.420;18.854;2022-10-16T02:46:11;101551.69;;;14.01;73.09
55044;BME280;54902;50.420;18.854;2022-10-16T02:46:42;101559.94;;;14.01;73.06
55044;BME280;54902;50.420;18.854;2022-10-16T02:47:13;101553.59;;;14.00;73.04
55044;BME280;54902;50.420;18.854;2022-10-16T02:47:44;101543.45;;;14.01;73.05
55044;BME280;54902;50.420;18.854;2022-10-16T02:48:15;101550.84;;;14.00;73.08
55044;BME280;54902;50.420;18.854;2022-10-16T02:48:46;101547.20;;;14.00;73.09
55044;BME280;54902;50.420;18.854;2022-10-16T02:49:17;101557.19;;;14.01;73.10
55044;BME280;54902;50.420;18.854;2022-10-16T02:49:49;101555.43;;;14.00;73.11
55044;BME280;54902;50.420;18.854;2022-10-16T02:50:20;101557.33;;;13.99;73.11
55044;BME280;54902;50.420;18.854;2022-10-16T02:50:51;101558.19;;;14.00;73.09
55044;BME280;54902;50.420;18.854;2022-10-16T02:51:22;101564.71;;;13.99;73.09
55044;BME280;54902;50.420;18.854;2022-10-16T02:51:53;101563.68;;;14.00;73.13
55044;BME280;54902;50.420;18.854;2022-10-16T02:52:23;101569.18;;;14.00;73.11
55044;BME280;54902;50.420;18.854;2022-10-16T02:52:54;101564.58;;;14.00;73.12
55044;BME280;54902;50.420;18.854;2022-10-16T02:53:25;101554.72;;;13.98;73.12
55044;BME280;54902;50.420;18.854;2022-10-16T02:53:56;101561.07;;;13.98;73.11
55044;BME280;54902;50.420;18.854;2022-10-16T02:54:27;101563.83;;;13.98;73.14
55044;BME280;54902;50.420;18.854;2022-10-16T02:54:58;101561.97;;;13.99;73.16
55044;BME280;54902;50.420;18.854;2022-10-16T02:55:29;101567.46;;;13.99;73.12
55044;BME280;54902;50.420;18.854;2022-10-16T02:56:00;101554.72;;;13.98;73.12
55044;BME280;54902;50.420;18.854;2022-10-16T02:56:31;101560.21;;;13.98;73.12
55044;BME280;54902;50.420;18.854;2022-10-16T02:57:02;101561.21;;;13.97;73.15
55044;BME280;54902;50.420;18.854;2022-10-16T02:57:33;101560.21;;;13.98;73.17
55044;BME280;54902;50.420;18.854;2022-10-16T02:58:04;101563.95;;;13.97;73.20
55044;BME280;54902;50.420;18.854;2022-10-16T02:58:35;101560.34;;;13.96;73.20
55044;BME280;54902;50.420;18.854;2022-10-16T02:59:05;101560.21;;;13.98;73.18
55044;BME280;54902;50.420;18.854;2022-10-16T02:59:36;101565.84;;;13.96;73.20
55044;BME280;54902;50.420;18.854;2022-10-16T03:00:10;101564.95;;;13.96;73.24
55044;BME280;54902;50.420;18.854;2022-10-16T03:00:42;101563.95;;;13.97;73.24
55044;BME280;54902;50.420;18.854;2022-10-16T03:01:13;101560.45;;;13.95;73.24
55044;BME280;54902;50.420;18.854;2022-10-16T03:01:47;101561.34;;;13.95;73.23
55044;BME280;54902;50.420;18.854;2022-10-16T03:02:18;101566.84;;;13.95;73.23
55044;BME280;54902;50.420;18.854;2022-10-16T03:02:49;101564.23;;;13.94;73.21
55044;BME280;54902;50.420;18.854;2022-10-16T03:03:20;101565.94;;;13.95;73.21
55044;BME280;54902;50.420;18.854;2022-10-16T03:03:50;101560.45;;;13.95;73.21
55044;BME280;54902;50.420;18.854;2022-10-16T03:04:21;101559.59;;;13.94;73.22
55044;BME280;54902;50.420;18.854;2022-10-16T03:04:52;101564.23;;;13.94;73.22
55044;BME280;54902;50.420;18.854;2022-10-16T03:05:23;101564.23;;;13.94;73.24
55044;BME280;54902;50.420;18.854;2022-10-16T03:05:54;101569.72;;;13.94;73.28
55044;BME280;54902;50.420;18.854;2022-10-16T03:06:25;101561.48;;;13.94;73.26
55044;BME280;54902;50.420;18.854;2022-10-16T03:06:56;101566.97;;;13.94;73.27
55044;BME280;54902;50.420;18.854;2022-10-16T03:07:27;101564.23;;;13.94;73.24
55044;BME280;54902;50.420;18.854;2022-10-16T03:07:58;101572.60;;;13.93;73.23
55044;BME280;54902;50.420;18.854;2022-10-16T03:08:31;101567.11;;;13.93;73.22
55044;BME280;54902;50.420;18.854;2022-10-16T03:09:02;101566.21;;;13.92;73.22
55044;BME280;54902;50.420;18.854;2022-10-16T03:09:33;101568.09;;;13.92;73.22
55044;BME280;54902;50.420;18.854;2022-10-16T03:10:05;101568.96;;;13.92;73.23